Details for Asiana Cargo at RKSS




Go Back


Latest METAR
Local Time

RKSS 061800Z 23001KT CAVOK 04/03 Q1017 NOSIG
07/04/2020, 03:31:50

Description
Results
Asiana Cargo Logo
Number of Pilots based at RKSS
0 Pilots Based here
Number of Asiana Cargo Flights Departed from RKSS
0 Flights Departed
Number of Asiana Cargo Flights Arrived at RKSS
0 Flights Arrived
Number of Asiana Cargo Schedules Departing from RKSS
0 Schedules
Number of Asiana Cargo Schedules Arriving at RKSS
0 Schedules
Number of Asiana Cargo Schedules Departing from RKSS availible today
0 Schedules Today
Number of Asiana Cargo Schedules Arriving at RKSS availible today
0 Schedules Today
Average Landing Rate at RKSS
-47 fpm
Asiana Cargo Average Landing Rate at RKSS
0 fpm
Total Fuel Purchased at RKSS by Asiana Cargo
0.00 kgs / 0.00 lbs

Pilots Based at RKSS


Pilot ID
Pilot Name
Pilot Rank
No. of Flights
No. of Flying Hours
There are no pilots assigned to this hub!   Will you be the first?